Time;durP1;ratioP1;P1;durP2;ratioP2;P2;SDS_P1;SDS_P2;PMS_P1;PMS_P2;Temp;Humidity;BMP_temperature;BMP_pressure;BME280_temperature;BME280_humidity;BME280_pressure;Samples;Min_cycle;Max_cycle;Signal;HPM_P1;HPM_P2
2022/02/09 00:09:21;;;;;;;7.93;1.50;;;;;;;12.22;64.82;102669.78;5002075;28;20045;-59
2022/02/09 00:12:02;;;;;;;7.40;1.60;;;;;;;12.22;64.62;102662.81;5006211;28;21842;-62
2022/02/09 00:41:01;;;;;;;9.20;1.85;;;;;;;12.18;65.08;102645.25;5000748;28;20056;-59
2022/02/09 01:03:02;;;;;;;6.63;1.90;;;;;;;12.26;64.59;102643.78;4965673;28;20223;-58
2022/02/09 01:37:58;;;;;;;8.43;1.80;;;;;;;12.31;64.46;102638.72;4997144;28;20161;-58
2022/02/09 01:44:34;;;;;;;7.18;2.03;;;;;;;12.30;64.98;102631.72;4996645;28;20041;-56
2022/02/09 01:57:12;;;;;;;7.68;2.45;;;;;;;12.25;65.76;102623.72;5001119;28;20060;-57
2022/02/09 01:59:38;;;;;;;6.53;2.60;;;;;;;12.31;65.43;102620.44;4994569;28;20064;-59
2022/02/09 02:02:05;;;;;;;7.38;2.97;;;;;;;12.30;65.83;102624.75;4989035;28;20279;-58
2022/02/09 02:04:30;;;;;;;7.75;2.80;;;;;;;12.30;65.90;102621.25;5000900;28;20060;-58
2022/02/09 02:06:56;;;;;;;8.00;2.60;;;;;;;12.27;66.22;102623.75;4999489;28;20037;-58
2022/02/09 02:09:23;;;;;;;7.80;3.13;;;;;;;12.31;66.01;102621.31;5004121;28;20133;-58
2022/02/09 02:12:05;;;;;;;9.73;2.92;;;;;;;12.31;65.93;102616.09;5011523;28;20119;-58
2022/02/09 02:14:45;;;;;;;9.10;3.22;;;;;;;12.15;66.70;102609.41;4998610;28;20504;-58
2022/02/09 02:19:50;;;;;;;11.13;3.05;;;;;;;12.24;66.51;102615.81;4997379;28;20044;-56
2022/02/09 02:25:07;;;;;;;6.28;3.20;;;;;;;12.26;66.68;102603.69;5000013;28;20034;-56
2022/02/09 02:33:10;;;;;;;;;;;;;;;12.39;66.10;102603.25;5004150;28;20178;-57
2022/02/09 03:12:42;;;;;;;7.13;3.72;;;;;;;12.37;65.95;102581.41;5000611;28;20111;-56
2022/02/09 03:18:01;;;;;;;6.43;3.50;;;;;;;12.35;66.12;102572.59;4999915;28;20047;-59
2022/02/09 03:20:36;;;;;;;7.55;3.70;;;;;;;12.30;65.94;102563.72;5003281;28;20073;-59
2022/02/09 03:23:53;;;;;;;6.95;3.40;;;;;;;12.36;65.99;102569.16;5004212;28;20054;-59
2022/02/09 03:26:23;;;;;;;6.78;3.38;;;;;;;12.20;66.45;102572.97;4980219;28;20045;-59
2022/02/09 03:47:47;;;;;;;8.43;3.35;;;;;;;12.39;66.14;102553.53;4999428;28;20580;-57
2022/02/09 03:50:34;;;;;;;8.57;2.80;;;;;;;12.37;66.28;102550.91;4997107;28;20045;-58
2022/02/09 03:55:47;;;;;;;5.30;2.83;;;;;;;12.35;66.32;102546.44;5001868;28;20084;-56
2022/02/09 03:58:16;;;;;;;6.80;2.80;;;;;;;12.33;66.37;102554.25;4999873;28;20077;-58
2022/02/09 04:00:42;;;;;;;7.07;3.00;;;;;;;12.35;66.31;102552.56;5003200;28;20050;-58
2022/02/09 04:03:13;;;;;;;4.80;3.10;;;;;;;12.38;66.27;102542.19;4999811;28;20395;-57
2022/02/09 04:05:39;;;;;;;5.35;2.80;;;;;;;12.40;65.95;102540.53;5002369;28;20053;-57
2022/02/09 04:08:05;;;;;;;6.85;3.10;;;;;;;12.45;65.81;102556.34;4983432;28;20453;-59
2022/02/09 04:10:39;;;;;;;7.22;2.80;;;;;;;12.46;65.77;102552.91;5004176;28;20057;-57
2022/02/09 04:13:19;;;;;;;6.88;2.80;;;;;;;12.42;65.66;102551.03;5000607;28;20033;-56
2022/02/09 04:18:43;;;;;;;;;;;;;;;12.40;65.86;102550.09;5000019;28;20071;-56
2022/02/09 04:40:13;;;;;;;8.35;3.63;;;;;;;12.41;65.22;102536.19;4999931;28;20073;-57
2022/02/09 04:50:49;;;;;;;8.20;4.70;;;;;;;12.18;66.44;102530.22;5000659;28;20425;-59
2022/02/09 04:53:23;;;;;;;13.40;4.97;;;;;;;12.27;66.11;102537.44;4996163;28;20148;-56
2022/02/09 04:55:57;;;;;;;9.82;4.75;;;;;;;12.22;66.38;102523.34;4990687;28;20146;-58
2022/02/09 05:01:32;;;;;;;10.55;4.28;;;;;;;12.17;66.91;102523.19;4998409;28;20491;-56
2022/02/09 05:04:34;;;;;;;8.75;4.43;;;;;;;12.21;66.55;102538.16;4993269;28;20043;-57
2022/02/09 05:17:59;;;;;;;10.43;4.63;;;;;;;12.25;66.52;102526.97;5001402;28;20060;-57
2022/02/09 05:23:00;;;;;;;7.40;4.68;;;;;;;12.12;66.88;102527.41;4996151;28;20050;-58
2022/02/09 05:28:03;;;;;;;9.88;4.47;;;;;;;12.25;66.46;102524.34;4995407;28;20630;-57
2022/02/09 05:30:29;;;;;;;7.18;4.35;;;;;;;12.29;66.05;102518.38;5000886;28;20041;-57
2022/02/09 05:32:54;;;;;;;11.25;4.80;;;;;;;12.26;66.39;102527.84;5001447;28;20269;-56
2022/02/09 05:35:21;;;;;;;9.05;4.70;;;;;;;12.27;66.41;102532.22;4998649;28;20547;-57
2022/02/09 05:37:51;;;;;;;8.93;4.63;;;;;;;12.26;66.60;102535.69;4992206;28;20628;-56
2022/02/09 05:40:16;;;;;;;6.50;3.92;;;;;;;12.19;66.67;102529.38;4997415;28;20037;-57
2022/02/09 05:42:42;;;;;;;8.40;4.38;;;;;;;12.19;66.70;102530.28;5012224;28;20527;-58
2022/02/09 05:45:10;;;;;;;7.65;4.07;;;;;;;12.18;66.80;102533.72;4998459;28;20044;-58
2022/02/09 05:48:19;;;;;;;9.90;4.22;;;;;;;12.17;66.75;102536.28;4998993;28;20200;-57
2022/02/09 05:50:36;;;;;;;7.80;3.78;;;;;;;12.16;66.26;102532.78;4986230;28;20041;-58
2022/02/09 05:58:09;;;;;;;9.95;4.07;;;;;;;12.07;66.78;102523.75;4991051;28;20927;-57
2022/02/09 06:00:34;;;;;;;10.93;3.50;;;;;;;12.13;66.40;102521.34;4999411;28;20029;-56
2022/02/09 06:03:01;;;;;;;7.30;3.90;;;;;;;12.15;66.52;102528.38;4997475;28;20048;-57
2022/02/09 06:05:27;;;;;;;8.43;3.90;;;;;;;12.19;66.34;102517.19;4998584;28;20045;-58
2022/02/09 06:07:53;;;;;;;9.65;4.18;;;;;;;12.07;66.76;102514.19;4991473;28;20107;-57
2022/02/09 06:10:22;;;;;;;7.97;3.65;;;;;;;12.09;66.93;102516.81;5000326;28;20110;-56
2022/02/09 06:12:54;;;;;;;7.78;3.90;;;;;;;12.10;66.99;102510.75;5002949;28;20480;-59
2022/02/09 06:15:48;;;;;;;6.75;3.90;;;;;;;12.14;66.63;102518.75;5008865;28;20555;-60
2022/02/09 06:20:57;;;;;;;7.23;3.87;;;;;;;12.02;67.75;102522.69;4996277;28;20520;-57
2022/02/09 06:23:22;;;;;;;6.88;3.95;;;;;;;12.04;67.81;102514.06;4998104;28;20290;-55
2022/02/09 06:25:47;;;;;;;8.90;4.30;;;;;;;12.00;67.67;102513.91;4988145;28;20041;-60
2022/02/09 06:28:13;;;;;;;6.90;3.92;;;;;;;12.03;67.67;102519.22;4996664;28;20142;-57
2022/02/09 06:30:39;;;;;;;8.60;3.90;;;;;;;12.01;67.96;102524.44;4996811;28;20041;-57
2022/02/09 06:33:04;;;;;;;6.88;4.10;;;;;;;11.97;67.84;102525.13;4999581;28;20045;-57
2022/02/09 06:35:29;;;;;;;6.72;4.10;;;;;;;11.96;67.84;102525.97;4999606;28;20045;-57
2022/02/09 06:37:57;;;;;;;8.55;4.68;;;;;;;11.87;68.38;102525.69;4988597;28;20046;-57
2022/02/09 06:40:23;;;;;;;6.65;4.03;;;;;;;11.95;68.25;102529.44;5000192;28;20127;-58
2022/02/09 06:42:48;;;;;;;7.13;4.53;;;;;;;11.85;68.71;102524.72;5001934;28;20128;-58
2022/02/09 06:45:21;;;;;;;10.75;4.82;;;;;;;11.98;68.04;102520.81;4996393;28;20057;-59
2022/02/09 06:47:51;;;;;;;9.23;4.95;;;;;;;12.03;68.03;102519.22;4994487;28;20045;-55
2022/02/09 06:50:37;;;;;;;12.57;4.97;;;;;;;11.89;68.26;102513.56;5001196;28;20033;-57
2022/02/09 06:55:47;;;;;;;8.00;4.93;;;;;;;12.00;67.97;102503.47;4999378;28;20083;-58
2022/02/09 06:58:20;;;;;;;10.00;5.38;;;;;;;12.01;67.99;102511.38;5001995;28;20874;-57
2022/02/09 07:00:45;;;;;;;10.70;4.85;;;;;;;12.04;67.79;102508.84;5002401;28;20760;-57
2022/02/09 07:03:11;;;;;;;9.32;4.43;;;;;;;12.08;67.68;102501.97;5004531;28;20042;-57
2022/02/09 07:05:37;;;;;;;8.38;4.43;;;;;;;12.01;68.04;102503.53;4997287;28;20072;-57
2022/02/09 07:08:03;;;;;;;9.10;4.13;;;;;;;12.14;67.21;102499.56;4984921;28;20519;-58
2022/02/09 07:10:29;;;;;;;8.15;4.07;;;;;;;11.97;67.83;102493.78;5002077;28;20333;-58
2022/02/09 07:12:54;;;;;;;8.80;3.78;;;;;;;12.13;67.43;102505.66;5001573;28;20530;-57
2022/02/09 07:15:28;;;;;;;8.65;4.15;;;;;;;12.04;67.46;102503.59;4998683;28;20045;-58
2022/02/09 07:17:54;;;;;;;10.30;4.37;;;;;;;12.08;67.39;102499.34;4992167;28;20044;-57
2022/02/09 07:20:27;;;;;;;7.85;4.60;;;;;;;12.06;67.20;102495.81;5000972;28;20132;-58
2022/02/09 07:22:56;;;;;;;7.32;4.47;;;;;;;12.12;67.31;102496.91;4994214;28;20030;-58
2022/02/09 07:25:31;;;;;;;9.40;5.00;;;;;;;11.99;67.86;102504.28;5006660;28;20037;-58
2022/02/09 07:28:00;;;;;;;12.10;5.35;;;;;;;12.00;67.44;102501.75;4999394;28;20590;-57
2022/02/09 07:30:27;;;;;;;13.70;5.65;;;;;;;12.03;67.54;102498.31;5000477;28;20057;-56
2022/02/09 07:32:53;;;;;;;9.18;5.60;;;;;;;12.09;67.71;102502.03;4991928;28;20052;-57
2022/02/09 07:35:19;;;;;;;9.52;5.57;;;;;;;12.09;67.26;102502.03;5001035;28;20149;-59
2022/02/09 07:37:44;;;;;;;9.82;6.10;;;;;;;12.12;67.29;102496.91;4999435;28;20176;-56
2022/02/09 07:40:12;;;;;;;10.30;6.00;;;;;;;12.06;67.35;102501.94;4985583;28;20049;-59
2022/02/09 07:42:44;;;;;;;12.48;6.20;;;;;;;12.08;67.38;102505.47;4992877;28;20846;-56
2022/02/09 07:48:12;;;;;;;10.63;6.65;;;;;;;12.09;67.34;102520.31;4993200;28;20056;-58
2022/02/09 07:50:40;;;;;;;11.63;6.43;;;;;;;12.20;66.83;102518.94;4998645;28;20048;-57
2022/02/09 07:53:23;;;;;;;10.75;6.43;;;;;;;12.15;67.21;102517.03;5002911;28;20040;-58
2022/02/09 07:55:48;;;;;;;10.07;6.35;;;;;;;12.18;66.97;102517.13;4991618;28;20060;-59
2022/02/09 07:58:14;;;;;;;12.68;7.13;;;;;;;12.03;67.39;102514.91;5019540;28;20781;-59
2022/02/09 08:00:39;;;;;;;13.35;6.50;;;;;;;12.16;66.97;102511.84;4999192;28;20041;-58
2022/02/09 08:03:05;;;;;;;11.55;6.57;;;;;;;12.12;67.11;102512.59;4999686;28;20092;-58
2022/02/09 08:05:31;;;;;;;11.40;6.85;;;;;;;12.15;66.65;102512.69;4995943;28;20269;-57
2022/02/09 08:07:57;;;;;;;11.65;6.88;;;;;;;12.25;66.73;102506.03;4989858;28;20409;-58
2022/02/09 08:10:39;;;;;;;10.20;6.70;;;;;;;12.30;66.60;102507.09;4997203;28;20037;-59
2022/02/09 08:29:26;;;;;;;9.95;6.78;;;;;;;12.46;65.71;102497.97;4997985;28;20029;-58
2022/02/09 08:34:25;;;;;;;;;;;;;;;12.43;65.10;102509.25;4996875;28;20180;-58
2022/02/09 08:36:52;;;;;;;9.73;5.95;;;;;;;12.50;65.43;102505.09;4994897;28;19920;-59
2022/02/09 08:39:18;;;;;;;10.30;6.50;;;;;;;12.34;65.43;102502.81;4998681;28;20452;-59
2022/02/09 08:41:44;;;;;;;11.75;6.55;;;;;;;12.38;65.14;102512.56;5000138;28;20189;-57
2022/02/09 08:44:09;;;;;;;10.88;7.25;;;;;;;12.46;65.40;102500.59;4996169;28;20433;-59
2022/02/09 08:46:34;;;;;;;11.77;6.90;;;;;;;12.39;65.45;102512.59;5000982;28;20041;-58
2022/02/09 08:49:00;;;;;;;13.07;7.18;;;;;;;12.54;65.15;102496.50;4998324;28;20033;-59
2022/02/09 08:51:27;;;;;;;10.35;7.03;;;;;;;12.55;65.06;102499.19;4999112;28;20119;-59
2022/02/09 08:53:53;;;;;;;11.13;6.88;;;;;;;12.53;64.95;102498.22;4993046;28;20038;-59
2022/02/09 08:56:19;;;;;;;11.73;7.13;;;;;;;12.50;65.09;102508.56;4998021;28;20041;-59
2022/02/09 08:58:44;;;;;;;13.57;6.63;;;;;;;12.64;64.89;102500.28;5000722;28;20084;-59
2022/02/09 09:01:22;;;;;;;11.30;6.97;;;;;;;12.64;64.83;102498.56;5000670;28;20068;-60
2022/02/09 09:03:53;;;;;;;12.48;7.78;;;;;;;12.81;64.22;102502.56;4996191;28;20050;-59
2022/02/09 09:06:23;;;;;;;11.02;7.35;;;;;;;12.66;64.48;102498.59;4988897;28;20032;-58
2022/02/09 10:33:00;;;;;;;10.73;6.25;;;;;;;14.48;58.14;102530.75;4986456;28;20064;-58
2022/02/09 10:35:33;;;;;;;13.27;6.80;;;;;;;14.22;58.82;102527.47;4983232;28;20052;-57
2022/02/09 10:38:39;;;;;;;11.88;6.47;;;;;;;14.27;58.68;102530.22;4976200;28;20135;-58
2022/02/09 10:41:08;;;;;;;;;;;;;;;14.19;59.04;102524.78;4983921;28;20046;-58
2022/02/09 10:43:35;;;;;;;12.80;6.90;;;;;;;14.41;58.23;102530.56;4982092;28;19920;-58
2022/02/09 10:46:20;;;;;;;12.07;7.38;;;;;;;14.17;59.44;102536.06;4977870;28;20053;-59
2022/02/09 10:48:54;;;;;;;14.50;8.32;;;;;;;14.17;58.79;102536.97;4984222;28;20258;-58
2022/02/09 10:54:06;;;;;;;16.67;7.55;;;;;;;14.21;58.98;102535.28;4974037;28;20121;-57
2022/02/09 10:56:33;;;;;;;19.20;8.10;;;;;;;13.97;59.37;102538.19;4986597;28;20054;-58
2022/02/09 10:59:00;;;;;;;14.13;8.10;;;;;;;14.03;59.55;102542.69;4984099;28;20046;-58
2022/02/09 11:01:27;;;;;;;14.35;7.97;;;;;;;14.07;59.66;102537.59;4980462;28;20141;-58
2022/02/09 11:03:58;;;;;;;16.80;8.57;;;;;;;13.89;60.17;102541.47;4996690;28;20121;-57
2022/02/09 11:06:30;;;;;;;17.00;8.65;;;;;;;13.97;60.09;102547.78;4974776;28;20045;-60
2022/02/09 11:08:56;;;;;;;15.20;8.48;;;;;;;14.01;60.12;102544.41;4983934;28;20057;-57
2022/02/09 11:11:22;;;;;;;17.02;8.52;;;;;;;14.07;59.97;102552.44;4983794;28;20057;-57
2022/02/09 11:13:48;;;;;;;16.33;8.63;;;;;;;14.18;59.65;102554.47;4978976;28;20129;-58
2022/02/09 11:16:13;;;;;;;15.57;9.00;;;;;;;14.12;59.33;102548.19;4979693;28;20042;-58
2022/02/09 11:18:39;;;;;;;16.00;8.40;;;;;;;14.22;59.29;102551.06;4992152;28;20053;-55
2022/02/09 11:21:10;;;;;;;16.55;8.65;;;;;;;14.13;59.38;102552.59;4977626;28;20037;-58
2022/02/09 11:23:58;;;;;;;16.50;9.60;;;;;;;14.13;59.09;102539.47;4976680;28;20056;-59
2022/02/09 11:26:54;;;;;;;20.17;9.93;;;;;;;13.97;59.50;102551.28;4982291;28;20447;-58
2022/02/09 11:34:58;;;;;;;17.42;9.68;;;;;;;13.85;60.21;102555.31;4990327;28;20060;-58
2022/02/09 11:40:20;;;;;;;16.08;8.65;;;;;;;14.02;59.80;102551.44;4983828;28;20658;-59
2022/02/09 11:42:53;;;;;;;14.63;9.23;;;;;;;14.04;59.14;102545.34;4982941;28;20045;-59
2022/02/09 12:00:30;;;;;;;16.15;8.82;;;;;;;14.04;59.10;102520.88;4973620;28;20052;-58
2022/02/09 12:11:06;;;;;;;15.20;8.50;;;;;;;14.12;59.17;102512.34;4997471;28;20049;-58
2022/02/09 12:14:13;;;;;;;15.48;8.10;;;;;;;14.03;59.18;102519.97;4978107;28;20384;-58
2022/02/09 12:16:44;;;;;;;16.90;8.50;;;;;;;13.98;59.54;102502.34;5002089;28;20056;-57
2022/02/09 12:19:13;;;;;;;16.15;7.90;;;;;;;13.88;59.84;102502.97;4980489;28;20045;-59
2022/02/09 12:24:54;;;;;;;13.52;7.38;;;;;;;13.86;60.31;102495.06;4997779;28;20856;-57
2022/02/09 12:27:21;;;;;;;13.43;7.13;;;;;;;13.76;60.76;102507.06;4949114;28;20656;-58
2022/02/09 12:29:48;;;;;;;13.95;7.00;;;;;;;13.93;60.24;102502.25;4978898;28;20477;-58
2022/02/09 12:32:16;;;;;;;13.65;7.32;;;;;;;13.89;60.18;102499.50;4982745;28;20041;-60
2022/02/09 12:34:45;;;;;;;14.63;7.32;;;;;;;13.88;60.02;102502.97;4980275;28;20053;-59
2022/02/09 12:37:12;;;;;;;14.65;7.25;;;;;;;13.77;60.79;102502.72;4990562;28;20122;-59
2022/02/09 12:40:03;;;;;;;13.73;7.53;;;;;;;13.69;61.39;102502.50;4983305;28;20137;-58
2022/02/09 12:42:31;;;;;;;13.57;7.40;;;;;;;13.75;61.09;102507.00;4983004;28;20566;-59
2022/02/09 12:45:02;;;;;;;15.90;7.95;;;;;;;13.80;60.87;102503.66;4995963;28;20076;-58
2022/02/09 12:47:31;;;;;;;14.23;7.97;;;;;;;13.77;60.82;102506.22;4983207;28;20037;-57
2022/02/09 12:49:56;;;;;;;15.63;8.23;;;;;;;13.93;60.51;102502.25;4967506;28;20436;-58
2022/02/09 12:52:28;;;;;;;15.93;8.10;;;;;;;13.97;60.26;102497.94;4984476;28;20164;-59
2022/02/09 12:55:13;;;;;;;15.45;7.88;;;;;;;14.16;59.69;102508.06;4980624;28;20709;-58
2022/02/09 12:57:53;;;;;;;;;;;;;;;14.13;60.17;102508.00;4985247;28;20045;-58
2022/02/09 13:00:21;;;;;;;16.35;6.95;;;;;;;14.03;60.11;102511.22;4984656;28;19918;-58
2022/02/09 13:02:47;;;;;;;13.13;6.57;;;;;;;14.06;59.76;102508.69;4977019;28;20576;-58
2022/02/09 13:05:12;;;;;;;15.13;7.05;;;;;;;14.05;59.66;102496.41;4997594;28;20088;-58
2022/02/09 13:07:38;;;;;;;14.75;6.85;;;;;;;13.93;60.53;102498.72;4980721;28;20056;-59
2022/02/09 13:10:04;;;;;;;12.45;6.68;;;;;;;14.00;61.03;102491.06;4976307;28;20049;-59
2022/02/09 13:12:31;;;;;;;13.02;6.35;;;;;;;14.12;60.99;102490.47;4982019;28;20656;-59
2022/02/09 13:15:10;;;;;;;15.98;6.18;;;;;;;14.20;60.63;102487.22;4980235;28;20037;-58
2022/02/09 13:17:54;;;;;;;17.15;6.82;;;;;;;13.95;61.35;102482.22;4979093;28;20042;-59
2022/02/09 14:13:31;;;;;;;14.90;7.03;;;;;;;13.23;64.29;102475.91;4984771;28;20045;-59
2022/02/09 14:53:45;;;;;;;19.00;8.27;;;;;;;12.73;65.29;102493.63;4976744;28;20095;-58
2022/02/09 14:56:22;;;;;;;21.35;8.43;;;;;;;12.60;65.95;102491.47;4980175;28;20061;-58
2022/02/09 14:58:55;;;;;;;17.88;9.50;;;;;;;12.56;66.55;102493.06;4982933;28;20048;-58
2022/02/09 15:01:32;;;;;;;17.63;9.43;;;;;;;12.52;66.87;102501.69;4986273;28;20057;-58
2022/02/09 15:04:21;;;;;;;23.05;9.50;;;;;;;12.43;67.29;102503.13;4975238;28;20439;-57
2022/02/09 15:07:20;;;;;;;19.25;8.93;;;;;;;12.37;67.89;102506.44;4981692;28;20175;-58
2022/02/09 15:09:52;;;;;;;21.75;9.40;;;;;;;12.31;68.31;102515.81;4985810;28;20141;-57
2022/02/09 15:12:30;;;;;;;24.05;9.43;;;;;;;12.28;68.69;102506.13;4979325;28;20338;-58
2022/02/09 15:17:38;;;;;;;22.27;9.35;;;;;;;12.22;69.25;102511.16;4997831;28;20066;-59
2022/02/09 15:20:35;;;;;;;17.92;9.02;;;;;;;12.16;69.36;102506.63;4980236;28;20041;-58
2022/02/09 15:22:56;;;;;;;24.55;10.40;;;;;;;12.11;70.03;102509.94;4984368;28;20056;-57
2022/02/09 15:25:22;;;;;;;20.00;9.52;;;;;;;12.16;69.81;102513.56;4981195;28;20049;-58
2022/02/09 15:27:53;;;;;;;21.92;9.05;;;;;;;12.08;70.57;102508.09;4980999;28;20073;-61
2022/02/09 15:30:18;;;;;;;19.67;9.50;;;;;;;12.10;70.81;102510.75;4997620;28;20038;-58
2022/02/09 15:32:49;;;;;;;16.92;9.05;;;;;;;12.15;70.43;102515.31;4985625;28;20053;-57
2022/02/09 15:35:21;;;;;;;19.00;9.75;;;;;;;12.13;70.65;102513.50;4982186;28;20050;-57
2022/02/09 15:37:59;;;;;;;20.95;10.00;;;;;;;12.11;70.72;102512.53;4980744;28;20076;-60
2022/02/09 15:40:33;;;;;;;22.75;8.93;;;;;;;12.12;70.61;102512.59;4982523;28;20053;-58
2022/02/09 15:56:56;;;;;;;25.03;10.73;;;;;;;11.89;72.37;102503.09;4980494;28;20065;-57
2022/02/09 15:59:35;;;;;;;23.77;10.25;;;;;;;11.85;71.81;102500.31;4980797;28;20285;-60
2022/02/09 16:10:21;;;;;;;21.67;10.85;;;;;;;11.82;72.26;102502.84;4978807;28;20125;-59
2022/02/09 16:19:30;;;;;;;22.85;10.50;;;;;;;11.75;72.27;102496.50;4953759;28;20128;-60
2022/02/09 16:21:55;;;;;;;22.77;10.15;;;;;;;11.70;72.31;102492.81;4935055;28;20054;-59
2022/02/09 16:46:15;;;;;;;25.52;11.30;;;;;;;11.56;72.86;102483.63;4976985;28;20125;-60
2022/02/09 16:48:53;;;;;;;28.92;11.32;;;;;;;11.60;73.10;102486.38;4975586;28;20422;-60
2022/02/09 16:51:21;;;;;;;21.80;10.68;;;;;;;11.59;72.95;102481.09;4979975;28;20057;-59
2022/02/09 16:56:36;;;;;;;23.45;10.70;;;;;;;11.53;73.28;102476.53;4981483;28;20452;-58
2022/02/09 17:18:45;;;;;;;22.30;10.00;;;;;;;11.58;73.17;102479.34;4980823;28;20069;-59
2022/02/09 17:21:31;;;;;;;23.77;10.25;;;;;;;11.54;73.41;102477.44;4932603;28;20137;-58
2022/02/09 17:24:02;;;;;;;27.95;10.90;;;;;;;11.49;73.66;102474.66;4895751;28;20517;-59
2022/02/09 17:26:27;;;;;;;30.98;11.05;;;;;;;11.45;73.27;102472.78;4958602;28;20615;-58
2022/02/09 17:28:59;;;;;;;24.35;10.60;;;;;;;11.45;73.14;102475.41;4974051;28;20149;-59
2022/02/09 17:31:55;;;;;;;23.85;10.63;;;;;;;11.48;73.23;102478.09;4978515;28;20080;-59
2022/02/09 17:34:42;;;;;;;22.92;10.30;;;;;;;11.40;73.24;102471.75;4977876;28;20042;-58
2022/02/09 17:37:14;;;;;;;22.05;10.50;;;;;;;11.39;73.44;102469.97;4977055;28;20464;-59
2022/02/09 17:53:24;;;;;;;22.35;10.32;;;;;;;11.41;73.30;102463.06;4986764;28;20476;-58
2022/02/09 17:55:57;;;;;;;22.88;9.65;;;;;;;11.45;73.46;102469.28;4964910;28;20061;-61
2022/02/09 18:01:08;;;;;;;;;;;;;;;11.46;73.32;102458.91;4980577;28;20454;-60
2022/02/09 18:03:33;;;;;;;23.70;9.73;;;;;;;11.47;73.01;102462.38;4979450;28;20100;-58
2022/02/09 18:06:13;;;;;;;25.38;10.55;;;;;;;11.44;73.59;102455.34;4961807;28;20050;-58
2022/02/09 18:08:49;;;;;;;26.00;11.43;;;;;;;11.45;73.53;102449.28;4976813;28;20092;-58
2022/02/09 18:11:26;;;;;;;26.75;10.85;;;;;;;11.45;73.58;102446.69;4993114;28;20092;-58
2022/02/09 18:14:18;;;;;;;28.35;10.95;;;;;;;11.47;73.25;102444.09;4970306;28;20453;-59
2022/02/09 18:25:17;;;;;;;22.42;9.90;;;;;;;11.35;73.31;102440.22;4978900;28;20157;-58
2022/02/09 18:30:42;;;;;;;25.65;10.82;;;;;;;11.39;73.02;102436.91;4983239;28;20060;-58
2022/02/09 18:33:34;;;;;;;26.48;11.70;;;;;;;11.38;73.21;102434.25;4980122;28;20045;-59
2022/02/09 18:44:41;;;;;;;23.33;9.60;;;;;;;11.42;72.77;102428.28;4975038;28;20064;-58
2022/02/09 18:47:08;;;;;;;23.88;9.18;;;;;;;11.39;72.80;102430.81;4977970;28;20103;-58
2022/02/09 19:03:05;;;;;;;24.60;9.48;;;;;;;11.30;72.92;102420.03;4981994;28;21011;-60
2022/02/09 19:19:04;;;;;;;19.63;8.57;;;;;;;11.34;72.29;102404.50;4974978;28;20434;-59
2022/02/09 19:32:10;;;;;;;23.95;9.32;;;;;;;11.29;72.67;102403.47;4976738;28;20046;-58
2022/02/09 19:53:24;;;;;;;19.70;8.77;;;;;;;11.27;72.43;102386.88;4981072;28;20182;-59
2022/02/09 19:56:11;;;;;;;21.02;8.50;;;;;;;11.25;73.22;102385.94;4963231;28;20049;-60
2022/02/09 19:58:44;;;;;;;21.50;8.55;;;;;;;11.30;72.73;102386.06;4986123;28;20137;-59
2022/02/09 20:01:14;;;;;;;22.83;8.80;;;;;;;11.23;72.64;102384.97;4999152;28;20048;-59
2022/02/09 20:03:40;;;;;;;16.67;8.45;;;;;;;11.28;72.99;102382.56;4982780;28;20385;-59
2022/02/09 20:06:07;;;;;;;17.73;8.82;;;;;;;11.31;73.10;102385.25;4971641;28;20054;-60
2022/02/09 20:08:37;;;;;;;19.67;8.82;;;;;;;11.27;72.67;102384.28;4976527;28;20038;-59
2022/02/09 20:11:09;;;;;;;22.85;8.10;;;;;;;11.24;72.79;102383.25;4984785;28;20049;-59
2022/02/09 20:13:35;;;;;;;22.17;8.07;;;;;;;11.23;73.05;102379.75;4982274;28;20045;-59
2022/02/09 20:16:01;;;;;;;18.90;8.60;;;;;;;11.23;73.27;102384.09;4973530;28;20069;-59
2022/02/09 20:18:27;;;;;;;16.90;7.90;;;;;;;11.25;73.47;102375.47;4985295;28;20056;-59
2022/02/09 20:20:55;;;;;;;16.55;7.63;;;;;;;11.22;73.01;102375.38;4973090;28;20047;-59
2022/02/09 20:23:21;;;;;;;21.40;7.78;;;;;;;11.26;73.48;102381.59;4983906;28;20337;-59
2022/02/09 20:25:46;;;;;;;21.27;8.07;;;;;;;11.24;73.11;102368.47;4976832;28;20046;-59
2022/02/09 20:28:12;;;;;;;16.27;7.47;;;;;;;11.23;73.39;102365.81;4978462;28;20053;-60
2022/02/09 20:30:44;;;;;;;14.73;7.30;;;;;;;11.23;73.32;102360.59;4982548;28;20381;-58
2022/02/09 20:33:14;;;;;;;15.10;7.45;;;;;;;11.18;73.26;102357.84;5002191;28;20975;-59
2022/02/09 20:35:40;;;;;;;16.85;7.57;;;;;;;11.13;73.23;102351.56;4982912;28;20044;-59
2022/02/09 20:38:11;;;;;;;19.25;7.38;;;;;;;11.08;73.41;102357.47;4975184;28;20050;-59
2022/02/09 20:40:47;;;;;;;18.98;7.55;;;;;;;11.07;73.46;102353.06;4982206;28;20052;-58
2022/02/09 20:43:14;;;;;;;20.02;7.70;;;;;;;11.06;73.32;102351.28;4991857;28;20050;-59
2022/02/09 20:45:49;;;;;;;18.85;7.72;;;;;;;11.09;73.59;102348.81;4985485;28;20445;-61
2022/02/09 20:48:16;;;;;;;16.63;8.25;;;;;;;10.98;73.59;102346.69;4978739;28;20056;-60
2022/02/09 20:50:42;;;;;;;18.77;9.40;;;;;;;11.04;73.68;102348.63;4976015;28;20049;-58
2022/02/09 20:53:08;;;;;;;19.55;9.43;;;;;;;11.07;73.65;102348.75;4978559;28;20160;-59
2022/02/09 20:55:36;;;;;;;21.30;9.20;;;;;;;11.19;73.21;102346.56;4981770;28;20493;-59
2022/02/09 20:58:03;;;;;;;17.73;9.82;;;;;;;11.17;73.10;102342.09;4979422;28;20552;-58
2022/02/09 21:11:17;;;;;;;22.55;10.10;;;;;;;11.28;72.74;102333.81;4981762;28;20040;-60
2022/02/09 21:14:08;;;;;;;24.35;10.20;;;;;;;11.29;72.78;102330.34;4981041;28;20516;-58
2022/02/09 21:19:35;;;;;;;24.02;9.57;;;;;;;11.33;72.36;102332.25;4996550;28;20128;-59
2022/02/09 21:27:32;;;;;;;;;;;;;;;11.21;72.42;102320.50;4985564;28;20072;-60
2022/02/09 21:54:31;;;;;;;23.02;11.50;;;;;;;11.27;72.28;102298.13;4994735;28;20393;-58
2022/02/09 21:57:06;;;;;;;24.13;11.85;;;;;;;11.24;72.39;102305.81;4979463;28;20053;-59
2022/02/09 22:29:22;;;;;;;31.17;13.48;;;;;;;11.24;72.62;102292.78;4983266;28;20139;-58
2022/02/09 22:34:53;;;;;;;31.05;13.93;;;;;;;11.26;72.47;102287.63;4985975;28;20046;-60
2022/02/09 22:48:37;;;;;;;28.98;13.57;;;;;;;11.36;71.96;102263.56;4978587;28;20044;-59
2022/02/09 22:56:31;;;;;;;30.08;15.18;;;;;;;11.31;71.62;102257.31;4995835;28;20413;-58
2022/02/09 22:58:58;;;;;;;28.05;15.40;;;;;;;11.26;71.68;102249.34;4990810;28;20058;-59
2022/02/09 23:01:36;;;;;;;33.13;16.00;;;;;;;11.29;71.80;102244.19;4994922;28;20033;-59
2022/02/09 23:06:35;;;;;;;32.10;16.48;;;;;;;11.28;71.61;102245.03;4980351;28;20050;-58
2022/02/09 23:14:34;;;;;;;33.92;16.85;;;;;;;11.20;72.02;102235.22;4983651;28;20056;-59
2022/02/09 23:25:37;;;;;;;35.00;17.48;;;;;;;11.26;71.62;102233.69;4979361;28;20867;-59
2022/02/09 23:58:45;;;;;;;36.15;17.92;;;;;;;11.29;70.93;102201.53;4938838;28;20066;-58
